Time;durP1;ratioP1;P1;durP2;ratioP2;P2;SDS_P1;SDS_P2;PMS_P1;PMS_P2;Temp;Humidity;BMP_temperature;BMP_pressure;BME280_temperature;BME280_humidity;BME280_pressure;Samples;Min_cycle;Max_cycle;Signal;HPM_P1;HPM_P2
2022/02/07 00:07:57;;;;;;;0.20;0.07;;;8.70;99.90;;;;;;25807522;23;20654;-75
2022/02/07 00:18:01;;;;;;;0.20;0.10;;;8.70;99.90;;;;;;25808530;23;20200;-76
2022/02/07 00:28:06;;;;;;;0.20;0.10;;;8.50;99.90;;;;;;25834175;23;20204;-74
2022/02/07 00:38:15;;;;;;;0.20;0.10;;;8.50;99.90;;;;;;25834079;22;20267;-74
2022/02/07 00:48:23;;;;;;;0.20;0.10;;;8.50;99.90;;;;;;25833846;23;20212;-73
2022/02/07 00:58:27;;;;;;;0.20;0.00;;;8.50;99.90;;;;;;25832348;23;20232;-75
2022/02/07 01:08:40;;;;;;;0.20;0.10;;;8.60;99.90;;;;;;25813802;23;20299;-75
2022/02/07 01:50:16;;;;;;;0.20;0.10;;;8.20;99.90;;;;;;25807589;23;20220;-73
2022/02/07 02:00:20;;;;;;;0.77;0.73;;;8.30;99.90;;;;;;25834359;23;20224;-73
2022/02/07 02:10:25;;;;;;;0.20;0.10;;;8.30;99.90;;;;;;25808992;23;20189;-73
2022/02/07 02:51:34;;;;;;;0.20;0.10;;;7.90;99.90;;;;;;25836446;23;20219;-72
2022/02/07 03:01:38;;;;;;;0.20;0.10;;;7.70;99.90;;;;;;25835213;23;20227;-66
2022/02/07 03:11:44;;;;;;;0.20;0.10;;;7.70;99.90;;;;;;25807455;23;20188;-73
2022/02/07 03:21:47;;;;;;;0.20;0.10;;;7.60;99.90;;;;;;25839220;23;20173;-73
2022/02/07 03:31:53;;;;;;;0.20;0.10;;;7.40;99.90;;;;;;25832180;22;20227;-74
2022/02/07 03:41:57;;;;;;;0.20;0.10;;;7.90;99.90;;;;;;25843414;23;20499;-75
2022/02/07 03:52:02;;;;;;;0.20;0.10;;;7.90;99.90;;;;;;25842063;23;20208;-74
2022/02/07 04:02:06;;;;;;;0.20;0.10;;;7.90;99.90;;;;;;25814182;23;20199;-76
2022/02/07 04:12:15;;;;;;;0.20;0.10;;;7.90;99.90;;;;;;25841603;23;20185;-74
2022/02/07 04:22:19;;;;;;;0.20;0.10;;;7.70;99.90;;;;;;25812950;23;20176;-76
2022/02/07 04:32:24;;;;;;;0.20;0.10;;;7.50;99.90;;;;;;25839427;23;20184;-75
2022/02/07 04:42:30;;;;;;;0.20;0.03;;;7.40;99.90;;;;;;25834263;23;20668;-78
2022/02/07 04:52:58;;;;;;;0.20;0.10;;;7.40;99.90;;;;;;25839877;23;20228;-77
2022/02/07 05:03:06;;;;;;;0.20;0.10;;;6.80;99.90;;;;;;25839879;23;20203;-78
2022/02/07 05:23:34;;;;;;;0.20;0.10;;;6.60;99.90;;;;;;25839315;23;20176;-77
2022/02/07 05:33:46;;;;;;;0.20;0.10;;;6.60;99.90;;;;;;25838316;23;20181;-76
2022/02/07 05:43:51;;;;;;;0.20;0.10;;;6.60;99.90;;;;;;25838191;23;20157;-71
2022/02/07 05:53:57;;;;;;;0.20;0.10;;;7.40;99.90;;;;;;25835733;23;21021;-70
2022/02/07 06:04:00;;;;;;;0.20;0.00;;;7.20;99.90;;;;;;25806479;23;20169;-67
2022/02/07 06:14:06;;;;;;;0.20;0.10;;;7.10;99.90;;;;;;25804497;23;20188;-67
2022/02/07 06:24:09;;;;;;;0.20;0.10;;;7.10;99.90;;;;;;25831857;23;20169;-66
2022/02/07 06:34:15;;;;;;;0.20;0.00;;;7.10;99.90;;;;;;25816382;22;20482;-68
2022/02/07 06:44:19;;;;;;;0.20;0.10;;;7.40;99.90;;;;;;25829072;23;20264;-67
2022/02/07 06:54:24;;;;;;;0.20;0.10;;;7.20;99.90;;;;;;25827910;23;20201;-66
2022/02/07 07:04:29;;;;;;;0.20;0.20;;;7.10;99.90;;;;;;25797299;23;20180;-67
2022/02/07 07:14:42;;;;;;;0.20;0.10;;;7.30;99.90;;;;;;25823117;23;20211;-69
2022/02/07 07:24:46;;;;;;;0.20;0.10;;;7.40;99.90;;;;;;25830397;23;20153;-73
2022/02/07 07:34:51;;;;;;;0.20;0.10;;;7.50;99.90;;;;;;25829899;23;20195;-64
2022/02/07 07:44:57;;;;;;;0.20;0.10;;;7.80;99.90;;;;;;25831318;23;20184;-71
2022/02/07 07:55:24;;;;;;;0.20;0.10;;;7.90;99.90;;;;;;25801610;23;20232;-67
2022/02/07 08:05:41;;;;;;;0.60;0.60;;;8.20;99.90;;;;;;25830486;23;20165;-71
2022/02/07 08:15:46;;;;;;;0.20;0.10;;;8.40;99.90;;;;;;25808075;23;20168;-70
2022/02/07 08:25:52;;;;;;;0.20;0.10;;;8.60;99.90;;;;;;25834798;23;20153;-65
2022/02/07 08:36:17;;;;;;;0.20;0.10;;;9.00;99.90;;;;;;25803890;23;20284;-66
2022/02/07 08:46:21;;;;;;;0.20;0.10;;;9.50;99.90;;;;;;25835826;23;20188;-66
2022/02/07 08:56:38;;;;;;;0.20;0.10;;;10.00;99.90;;;;;;25834135;23;20649;-66
2022/02/07 09:06:56;;;;;;;0.20;0.00;;;10.50;99.90;;;;;;25835565;23;20279;-64
2022/02/07 09:17:01;;;;;;;0.20;0.10;;;10.50;99.90;;;;;;25833854;23;20729;-65
2022/02/07 09:27:05;;;;;;;0.20;0.10;;;10.70;99.90;;;;;;25834586;23;20733;-65
2022/02/07 09:37:10;;;;;;;0.20;0.10;;;11.00;99.90;;;;;;25834296;23;20165;-66
2022/02/07 09:47:15;;;;;;;0.20;0.10;;;11.30;99.90;;;;;;25832211;23;20199;-66
2022/02/07 09:57:20;;;;;;;0.20;0.20;;;11.60;99.90;;;;;;25829346;23;20201;-66
2022/02/07 10:07:34;;;;;;;0.20;0.10;;;11.80;99.90;;;;;;25800950;23;20518;-65
2022/02/07 10:17:52;;;;;;;0.20;0.10;;;11.90;99.90;;;;;;25827381;23;20195;-70
2022/02/07 10:38:47;;;;;;;2.40;0.93;;;13.00;99.90;;;;;;25828085;23;20650;-71
2022/02/07 10:48:53;;;;;;;0.20;0.10;;;13.70;99.90;;;;;;25830302;23;20189;-72
2022/02/07 10:58:58;;;;;;;0.20;0.10;;;14.60;99.90;;;;;;25796570;23;20673;-71
2022/02/07 11:09:15;;;;;;;0.20;0.10;;;15.50;99.90;;;;;;25832445;23;20654;-75
2022/02/07 11:19:45;;;;;;;0.20;0.10;;;15.60;99.90;;;;;;25824998;23;20164;-71
2022/02/07 11:29:50;;;;;;;0.20;0.10;;;16.10;99.90;;;;;;25798487;23;20196;-70
2022/02/07 11:39:56;;;;;;;0.23;0.17;;;16.70;99.90;;;;;;25829980;23;20201;-71
2022/02/07 11:50:08;;;;;;;0.20;0.10;;;17.40;99.90;;;;;;25810077;23;20243;-67
2022/02/07 12:00:16;;;;;;;0.83;0.83;;;18.30;99.90;;;;;;25835000;23;20220;-65
2022/02/07 12:10:37;;;;;;;0.20;0.10;;;18.80;99.90;;;;;;25809969;23;20185;-65
2022/02/07 12:20:44;;;;;;;0.20;0.00;;;19.60;99.90;;;;;;25836192;23;20629;-67
2022/02/07 12:31:01;;;;;;;0.20;0.17;;;20.20;99.90;;;;;;25836415;23;20264;-66
2022/02/07 12:41:08;;;;;;;0.20;0.10;;;21.30;99.90;;;;;;25834891;23;20625;-66
2022/02/07 12:51:12;;;;;;;0.30;0.30;;;21.70;99.90;;;;;;25832991;23;20583;-67
2022/02/07 13:01:28;;;;;;;0.20;0.10;;;20.90;99.90;;;;;;25807437;23;20204;-66
2022/02/07 13:11:34;;;;;;;0.20;0.17;;;20.80;99.90;;;;;;25832290;23;20180;-67
2022/02/07 13:21:42;;;;;;;0.20;0.10;;;20.90;99.90;;;;;;25833869;23;20440;-67
2022/02/07 13:31:53;;;;;;;0.20;0.10;;;21.40;99.90;;;;;;25820330;23;20584;-67
2022/02/07 13:42:06;;;;;;;0.20;0.00;;;21.10;99.90;;;;;;25820351;23;20152;-68
2022/02/07 13:52:10;;;;;;;0.30;0.30;;;21.80;99.90;;;;;;25829277;23;20524;-67
2022/02/07 14:02:28;;;;;;;0.50;0.50;;;22.00;99.90;;;;;;25802562;23;20173;-67
2022/02/07 14:12:32;;;;;;;0.30;0.30;;;21.80;99.90;;;;;;25832171;23;20196;-66
2022/02/07 14:22:37;;;;;;;0.80;0.57;;;21.90;99.90;;;;;;25832187;23;20169;-66
2022/02/07 14:32:41;;;;;;;3.40;1.67;;;22.20;99.90;;;;;;25839714;23;20212;-88
2022/02/07 14:42:47;;;;;;;0.20;0.00;;;21.90;99.90;;;;;;25852964;23;20172;-74
2022/02/07 14:52:51;;;;;;;0.20;0.10;;;22.00;99.90;;;;;;25805407;23;20590;-82
2022/02/07 15:02:58;;;;;;;0.87;0.70;;;22.20;99.90;;;;;;25835661;23;20264;-74
2022/02/07 15:13:03;;;;;;;0.20;0.10;;;21.70;99.90;;;;;;25830623;23;20180;-66
2022/02/07 15:23:11;;;;;;;0.20;0.10;;;22.30;99.90;;;;;;25838129;23;20172;-65
2022/02/07 15:33:17;;;;;;;0.20;0.10;;;22.20;99.90;;;;;;25809233;23;20185;-65
2022/02/07 15:43:23;;;;;;;0.20;0.10;;;21.30;99.90;;;;;;25808968;23;20153;-65
2022/02/07 15:53:26;;;;;;;0.20;0.00;;;20.20;99.90;;;;;;25829631;22;20521;-64
2022/02/07 16:03:32;;;;;;;0.20;0.00;;;19.60;99.90;;;;;;25831945;23;20169;-68
2022/02/07 16:13:37;;;;;;;0.20;0.10;;;19.50;99.90;;;;;;25803975;23;20188;-66
2022/02/07 16:23:44;;;;;;;0.20;0.00;;;19.60;99.90;;;;;;25831733;23;20172;-68
2022/02/07 16:33:48;;;;;;;0.20;0.00;;;18.50;99.90;;;;;;25830449;23;20634;-68
2022/02/07 16:43:53;;;;;;;0.20;0.10;;;17.30;99.90;;;;;;25828408;23;20599;-67
2022/02/07 16:53:57;;;;;;;0.20;0.03;;;16.30;99.90;;;;;;25822786;23;20223;-67
2022/02/07 17:04:03;;;;;;;0.20;0.10;;;15.40;99.90;;;;;;25825392;23;20165;-67
2022/02/07 17:14:08;;;;;;;0.20;0.00;;;14.70;99.90;;;;;;25824543;23;20244;-68
2022/02/07 17:24:13;;;;;;;0.20;0.10;;;13.90;99.90;;;;;;25826268;23;20465;-66
2022/02/07 17:34:17;;;;;;;0.20;0.10;;;13.70;99.90;;;;;;25826355;23;20204;-67
2022/02/07 17:44:22;;;;;;;0.20;0.10;;;13.20;99.90;;;;;;25799129;23;20165;-67
2022/02/07 17:54:26;;;;;;;0.20;0.10;;;13.00;99.90;;;;;;25823191;23;20201;-67
2022/02/07 18:04:31;;;;;;;0.20;0.10;;;12.30;99.90;;;;;;25799287;23;20169;-66
2022/02/07 18:14:36;;;;;;;0.53;0.53;;;12.20;99.90;;;;;;25821625;23;20545;-66
2022/02/07 18:24:42;;;;;;;0.20;0.10;;;12.10;99.90;;;;;;25775001;23;20172;-66
2022/02/07 18:34:46;;;;;;;0.87;0.87;;;11.70;99.90;;;;;;25829608;23;20196;-67
2022/02/07 18:44:57;;;;;;;0.20;0.10;;;11.30;99.90;;;;;;25829940;23;20165;-66
2022/02/07 18:55:01;;;;;;;0.20;0.10;;;11.20;99.90;;;;;;25829184;23;20196;-67
2022/02/07 19:05:26;;;;;;;0.20;0.10;;;11.20;99.90;;;;;;25801335;23;20623;-68
2022/02/07 19:15:32;;;;;;;0.20;0.10;;;10.90;99.90;;;;;;25801139;23;20196;-75
2022/02/07 19:25:51;;;;;;;0.20;0.10;;;11.00;99.90;;;;;;25801450;23;20255;-71
2022/02/07 19:35:56;;;;;;;0.20;0.10;;;11.00;99.90;;;;;;25830742;23;20185;-73
2022/02/07 19:46:02;;;;;;;0.20;0.10;;;10.70;99.90;;;;;;25830307;23;20176;-72
2022/02/07 19:56:06;;;;;;;0.20;0.10;;;10.60;99.90;;;;;;25826322;23;20205;-73
2022/02/07 20:06:11;;;;;;;0.20;0.10;;;10.60;99.90;;;;;;25832737;23;20193;-75
2022/02/07 20:16:17;;;;;;;0.20;0.10;;;10.80;99.90;;;;;;25838833;23;20195;-73
2022/02/07 20:26:22;;;;;;;0.20;0.10;;;11.00;99.90;;;;;;25839084;23;20195;-73
2022/02/07 20:36:26;;;;;;;0.20;0.10;;;11.00;99.90;;;;;;25837148;23;20223;-76
2022/02/07 20:46:31;;;;;;;0.20;0.10;;;10.80;99.90;;;;;;25810481;23;20176;-65
2022/02/07 20:56:35;;;;;;;0.20;0.10;;;10.40;99.90;;;;;;25809250;23;20535;-66
2022/02/07 21:07:03;;;;;;;0.20;0.10;;;10.90;99.90;;;;;;25836110;23;20181;-66
2022/02/07 21:17:07;;;;;;;0.20;0.10;;;10.80;99.90;;;;;;25836264;23;20212;-67
2022/02/07 21:27:12;;;;;;;0.20;0.20;;;10.70;99.90;;;;;;25836076;23;20172;-67
2022/02/07 21:37:16;;;;;;;0.20;0.10;;;10.20;99.90;;;;;;25836008;23;20189;-68
2022/02/07 21:47:21;;;;;;;0.20;0.10;;;10.00;99.90;;;;;;25835993;23;20764;-67
2022/02/07 21:57:25;;;;;;;0.67;0.67;;;9.90;99.90;;;;;;25836890;23;20501;-67
2022/02/07 22:07:30;;;;;;;0.20;0.10;;;9.80;99.90;;;;;;25836096;23;20496;-67
2022/02/07 22:17:56;;;;;;;0.20;0.10;;;9.70;99.90;;;;;;25837424;23;20223;-67
2022/02/07 22:28:01;;;;;;;0.20;0.10;;;10.50;99.90;;;;;;25809359;23;20173;-67
2022/02/07 22:38:05;;;;;;;0.20;0.10;;;10.60;99.90;;;;;;25836314;23;20189;-67
2022/02/07 22:48:10;;;;;;;0.20;0.00;;;10.50;99.90;;;;;;25808249;23;20477;-67
2022/02/07 22:58:14;;;;;;;0.20;0.10;;;10.40;99.90;;;;;;25835187;23;20207;-67
2022/02/07 23:08:33;;;;;;;0.20;0.10;;;9.90;99.90;;;;;;25803185;23;20180;-67
2022/02/07 23:18:44;;;;;;;0.20;0.10;;;9.90;99.90;;;;;;25829318;23;20188;-67
2022/02/07 23:39:19;;;;;;;0.20;0.10;;;9.50;99.90;;;;;;25833961;23;20207;-74
2022/02/07 23:49:32;;;;;;;0.20;0.10;;;9.20;99.90;;;;;;25839954;23;20223;-66
2022/02/07 23:59:42;;;;;;;0.20;0.10;;;8.90;99.90;;;;;;25788965;23;20204;-66
